createdAt,value
2023-02-27T00:01:59.147Z,72.62
2023-02-27T00:04:27.097Z,72.71
2023-02-27T00:06:55.090Z,72.27
2023-02-27T00:09:23.022Z,72.10
2023-02-27T00:11:52.292Z,72.45
2023-02-27T00:14:20.189Z,72.59
2023-02-27T00:16:48.129Z,74.33
2023-02-27T00:19:16.089Z,73.81
2023-02-27T00:21:44.666Z,73.39
2023-02-27T00:24:13.013Z,72.86
2023-02-27T00:26:41.204Z,73.15
2023-02-27T00:29:10.603Z,73.60
2023-02-27T00:31:38.513Z,73.53
2023-02-27T00:34:06.437Z,72.76
2023-02-27T00:36:34.367Z,72.95
2023-02-27T00:39:02.332Z,74.18
2023-02-27T00:41:30.243Z,73.94
2023-02-27T00:43:58.222Z,73.70
2023-02-27T00:46:27.568Z,75.70
2023-02-27T00:48:56.665Z,76.01
2023-02-27T00:51:24.973Z,75.64
2023-02-27T00:53:53.060Z,75.04
2023-02-27T00:56:20.952Z,75.08
2023-02-27T00:58:48.896Z,75.33
2023-02-27T01:01:16.857Z,75.98
2023-02-27T01:03:46.181Z,75.95
2023-02-27T01:06:14.219Z,74.86
2023-02-27T01:08:42.235Z,76.51
2023-02-27T01:11:10.118Z,77.16
2023-02-27T01:13:37.978Z,77.69
2023-02-27T01:16:08.558Z,76.78
2023-02-27T01:18:36.583Z,78.28
2023-02-27T01:21:06.611Z,78.25
2023-02-27T01:23:34.534Z,78.56
2023-02-27T01:26:02.448Z,80.43
2023-02-27T01:28:30.404Z,77.28
2023-02-27T01:30:58.498Z,77.30
2023-02-27T01:33:26.500Z,77.75
2023-02-27T01:35:54.531Z,79.40
2023-02-27T01:38:23.954Z,79.81
2023-02-27T01:40:51.869Z,80.13
2023-02-27T01:43:21.877Z,80.85
2023-02-27T01:45:50.806Z,81.80
2023-02-27T01:48:23.299Z,82.07
2023-02-27T01:50:55.097Z,82.93
2023-02-27T01:53:27.744Z,83.66
2023-02-27T01:55:59.510Z,84.60
2023-02-27T01:58:28.200Z,83.43
2023-02-27T02:00:56.776Z,82.52
2023-02-27T02:03:30.785Z,81.51
2023-02-27T02:06:00.754Z,81.69
2023-02-27T02:08:34.353Z,81.49
2023-02-27T02:11:02.426Z,81.63
2023-02-27T02:13:30.794Z,80.94
2023-02-27T02:16:11.564Z,79.93
2023-02-27T02:18:49.225Z,79.50
2023-02-27T02:21:56.137Z,79.64
2023-02-27T02:25:01.102Z,79.47
2023-02-27T02:27:42.346Z,78.97
2023-02-27T02:30:56.498Z,80.50
2023-02-27T02:33:56.005Z,81.48
2023-02-27T02:37:06.801Z,80.81
2023-02-27T02:39:48.453Z,79.58
2023-02-27T02:42:23.212Z,80.23
2023-02-27T02:44:59.465Z,80.13
2023-02-27T02:47:36.749Z,79.70
2023-02-27T02:50:11.848Z,78.50
2023-02-27T02:52:47.026Z,77.49
2023-02-27T02:55:22.281Z,77.32
2023-02-27T02:57:57.497Z,77.66
2023-02-27T03:00:29.937Z,77.74
2023-02-27T03:03:04.015Z,77.92
2023-02-27T03:05:36.541Z,78.11
2023-02-27T03:08:10.249Z,78.26
2023-02-27T03:10:45.588Z,78.40
2023-02-27T03:13:19.780Z,77.47
2023-02-27T03:15:52.904Z,77.28
2023-02-27T03:18:24.877Z,76.85
2023-02-27T03:20:58.789Z,75.90
2023-02-27T03:23:33.392Z,77.09
2023-02-27T03:26:05.116Z,77.81
2023-02-27T03:28:37.325Z,77.55
2023-02-27T03:31:10.909Z,77.91
2023-02-27T03:33:44.781Z,76.29
2023-02-27T03:36:20.163Z,75.10
2023-02-27T03:38:55.788Z,74.34
2023-02-27T03:41:34.053Z,74.77
2023-02-27T03:44:10.822Z,76.26
2023-02-27T03:46:39.310Z,75.23
2023-02-27T03:49:07.976Z,74.82
2023-02-27T03:51:36.323Z,75.44
2023-02-27T03:54:09.772Z,75.47
2023-02-27T03:56:43.888Z,75.73
2023-02-27T03:59:12.208Z,76.26
2023-02-27T04:01:41.276Z,71.20
2023-02-27T04:04:14.394Z,71.86
2023-02-27T04:07:07.105Z,72.24
2023-02-27T04:09:51.663Z,72.73
2023-02-27T04:12:39.647Z,71.82
2023-02-27T04:15:19.627Z,72.14
2023-02-27T04:17:57.316Z,72.61
2023-02-27T04:20:37.959Z,72.11
2023-02-27T04:23:11.050Z,72.08
2023-02-27T04:25:55.611Z,71.54
2023-02-27T04:28:32.574Z,71.28
2023-02-27T04:31:08.693Z,70.95
2023-02-27T04:33:47.378Z,70.80
2023-02-27T04:36:21.491Z,70.54
2023-02-27T04:38:55.550Z,71.32
2023-02-27T04:41:28.863Z,71.06
2023-02-27T04:43:59.821Z,70.51
2023-02-27T04:46:30.290Z,67.64
2023-02-27T04:49:01.778Z,67.42
2023-02-27T04:51:36.296Z,68.42
2023-02-27T04:54:09.389Z,69.64
2023-02-27T04:56:42.475Z,70.73
2023-02-27T04:59:16.761Z,70.68
2023-02-27T05:01:49.598Z,70.58
2023-02-27T05:04:22.776Z,70.54
2023-02-27T05:06:53.087Z,70.28
2023-02-27T05:09:27.630Z,70.57
2023-02-27T05:12:01.729Z,71.08
2023-02-27T05:14:35.764Z,71.90
2023-02-27T05:17:09.379Z,73.42
2023-02-27T05:19:40.635Z,77.13
2023-02-27T05:22:22.179Z,81.34
2023-02-27T05:24:54.712Z,85.03
2023-02-27T05:27:31.941Z,86.86
2023-02-27T05:30:06.048Z,88.41
2023-02-27T05:32:42.167Z,90.23
2023-02-27T05:35:17.456Z,91.63
2023-02-27T05:37:49.870Z,91.00
2023-02-27T05:40:22.207Z,91.64
2023-02-27T05:42:58.312Z,91.62
2023-02-27T05:45:32.842Z,91.32
2023-02-27T05:48:05.932Z,91.32
2023-02-27T05:50:36.675Z,90.09
2023-02-27T05:53:08.979Z,90.46
2023-02-27T05:55:40.205Z,91.32
2023-02-27T05:58:16.672Z,95.17
2023-02-27T06:00:50.620Z,98.16
2023-02-27T06:03:19.276Z,97.37
2023-02-27T06:05:48.081Z,98.12
2023-02-27T06:08:16.046Z,97.74
2023-02-27T06:10:44.078Z,95.27
2023-02-27T06:13:12.052Z,94.49
2023-02-27T06:15:40.089Z,95.47
2023-02-27T06:18:11.254Z,91.53
2023-02-27T06:20:39.371Z,90.09
2023-02-27T06:23:07.746Z,89.25
2023-02-27T06:25:35.837Z,87.52
2023-02-27T06:28:04.274Z,86.13
2023-02-27T06:30:32.605Z,84.77
2023-02-27T06:33:01.045Z,84.00
2023-02-27T06:35:31.324Z,83.13
2023-02-27T06:37:59.542Z,86.01
2023-02-27T06:40:27.716Z,87.47
2023-02-27T06:42:55.786Z,89.10
2023-02-27T06:45:24.323Z,90.50
2023-02-27T06:47:52.274Z,89.72
2023-02-27T06:50:20.405Z,87.85
2023-02-27T06:52:49.706Z,87.28
2023-02-27T06:55:20.607Z,88.82
2023-02-27T06:57:48.817Z,89.81
2023-02-27T07:00:18.129Z,89.38
2023-02-27T07:02:46.350Z,87.92
2023-02-27T07:05:14.330Z,88.24
2023-02-27T07:07:42.335Z,88.67
2023-02-27T07:10:16.856Z,88.35
2023-02-27T07:12:44.839Z,86.90
2023-02-27T07:15:13.324Z,86.14
2023-02-27T07:17:41.301Z,85.11
2023-02-27T07:20:11.674Z,84.59
2023-02-27T07:22:40.743Z,84.42
2023-02-27T07:25:09.862Z,83.81
2023-02-27T07:27:39.175Z,81.31
2023-02-27T07:30:08.303Z,81.22
2023-02-27T07:32:36.350Z,82.00
2023-02-27T07:35:04.495Z,81.05
2023-02-27T07:37:32.853Z,78.13
2023-02-27T07:40:00.792Z,75.55
2023-02-27T07:42:28.749Z,75.96
2023-02-27T07:44:58.084Z,76.14
2023-02-27T07:47:26.091Z,74.78
2023-02-27T07:49:54.142Z,75.12
2023-02-27T07:52:22.074Z,74.43
2023-02-27T07:54:49.994Z,73.01
2023-02-27T07:57:17.898Z,74.64
2023-02-27T07:59:45.779Z,74.56
2023-02-27T08:02:15.720Z,75.88
2023-02-27T08:04:43.754Z,76.98
2023-02-27T08:07:11.716Z,73.75
2023-02-27T08:09:39.621Z,72.65
2023-02-27T08:12:07.686Z,72.07
2023-02-27T08:14:35.695Z,71.68
2023-02-27T08:17:03.628Z,71.06
2023-02-27T08:19:32.929Z,70.87
2023-02-27T08:22:00.882Z,70.12
2023-02-27T08:24:28.969Z,71.97
2023-02-27T08:26:57.348Z,71.90
2023-02-27T08:29:25.453Z,69.74
2023-02-27T08:31:53.780Z,67.49
2023-02-27T08:34:21.831Z,65.33
2023-02-27T08:36:51.395Z,64.06
2023-02-27T08:39:20.425Z,63.85
2023-02-27T08:41:48.365Z,65.25
2023-02-27T08:44:16.496Z,63.96
2023-02-27T08:46:44.474Z,62.64
2023-02-27T08:49:12.543Z,59.70
2023-02-27T08:51:40.444Z,58.94
2023-02-27T08:54:09.732Z,59.55
2023-02-27T08:56:37.774Z,60.39
2023-02-27T08:59:05.731Z,58.79
2023-02-27T09:01:34.749Z,59.55
2023-02-27T09:04:04.461Z,58.22
2023-02-27T09:06:33.660Z,55.64
2023-02-27T09:09:01.815Z,58.55
2023-02-27T09:11:31.308Z,56.94
2023-02-27T09:13:59.578Z,57.23
2023-02-27T09:16:28.255Z,56.42
2023-02-27T09:18:56.504Z,57.33
2023-02-27T09:21:24.820Z,55.82
2023-02-27T09:23:53.002Z,54.16
2023-02-27T09:26:24.688Z,54.40
2023-02-27T09:28:58.407Z,54.49
2023-02-27T09:31:26.676Z,55.64
2023-02-27T09:33:55.746Z,54.63
2023-02-27T09:36:23.773Z,56.56
2023-02-27T09:38:51.967Z,54.61
2023-02-27T09:41:39.210Z,54.38
2023-02-27T09:44:25.247Z,55.20
2023-02-27T09:46:58.847Z,54.72
2023-02-27T09:49:33.380Z,55.61
2023-02-27T09:52:01.820Z,54.92
2023-02-27T09:54:34.495Z,53.25
2023-02-27T09:57:06.675Z,53.35
2023-02-27T09:59:44.353Z,54.18
2023-02-27T10:02:28.252Z,53.89
2023-02-27T10:05:03.902Z,54.72
2023-02-27T10:07:38.673Z,54.27
2023-02-27T10:10:18.465Z,50.26
2023-02-27T10:13:04.586Z,51.12
2023-02-27T10:15:38.580Z,51.83
2023-02-27T10:18:26.147Z,52.60
2023-02-27T10:20:58.080Z,52.36
2023-02-27T10:23:35.610Z,48.60
2023-02-27T10:26:05.191Z,47.87
2023-02-27T10:28:34.119Z,48.43
2023-02-27T10:31:03.856Z,50.29
2023-02-27T10:33:36.591Z,48.58
2023-02-27T10:36:15.776Z,49.29
2023-02-27T10:38:52.934Z,47.24
2023-02-27T10:41:23.116Z,47.68
2023-02-27T10:44:03.734Z,48.65
2023-02-27T10:46:35.903Z,48.75
2023-02-27T10:49:11.514Z,49.04
2023-02-27T10:51:39.467Z,48.85
2023-02-27T10:54:21.530Z,50.22
2023-02-27T10:56:52.318Z,49.84
2023-02-27T10:59:23.823Z,47.10
2023-02-27T11:01:55.747Z,47.89
2023-02-27T11:04:30.909Z,48.83
2023-02-27T11:07:00.309Z,49.81
2023-02-27T11:09:30.462Z,47.61
2023-02-27T11:12:13.237Z,48.19
2023-02-27T11:14:51.216Z,47.50
2023-02-27T11:17:27.418Z,46.60
2023-02-27T11:19:56.006Z,47.89
2023-02-27T11:22:25.802Z,48.55
2023-02-27T11:25:10.579Z,48.99
2023-02-27T11:27:38.618Z,49.03
2023-02-27T11:30:22.557Z,48.25
2023-02-27T11:32:53.362Z,47.98
2023-02-27T11:35:25.718Z,47.28
2023-02-27T11:37:56.259Z,47.16
2023-02-27T11:40:29.583Z,46.92
2023-02-27T11:42:59.461Z,46.81
2023-02-27T11:46:13.376Z,46.13
2023-02-27T11:48:26.730Z,46.95
2023-02-27T11:51:22.581Z,45.83
2023-02-27T11:54:09.646Z,45.94
2023-02-27T11:56:41.830Z,46.95
2023-02-27T11:59:23.516Z,47.33
2023-02-27T12:01:55.490Z,47.37
2023-02-27T12:04:28.511Z,47.79
2023-02-27T12:07:02.542Z,47.81
2023-02-27T12:09:43.106Z,48.28
2023-02-27T12:12:20.282Z,47.86
2023-02-27T12:14:58.571Z,47.52
2023-02-27T12:17:33.227Z,46.52
2023-02-27T12:20:22.651Z,47.26
2023-02-27T12:22:54.147Z,47.03
2023-02-27T12:25:41.741Z,46.36
2023-02-27T12:28:31.616Z,46.45
2023-02-27T12:31:14.436Z,45.85
2023-02-27T12:33:48.281Z,46.33
2023-02-27T12:36:17.891Z,46.85
2023-02-27T12:38:45.867Z,46.57
2023-02-27T12:41:31.137Z,47.12
2023-02-27T12:44:21.561Z,46.04
2023-02-27T12:46:56.043Z,46.11
2023-02-27T12:49:32.082Z,46.14
2023-02-27T12:52:13.744Z,45.17
2023-02-27T12:54:54.916Z,45.02
2023-02-27T12:57:36.380Z,45.46
2023-02-27T13:00:12.571Z,45.39
2023-02-27T13:03:05.184Z,44.64
2023-02-27T13:05:44.364Z,44.25
2023-02-27T13:08:38.241Z,45.29
2023-02-27T13:11:13.774Z,44.60
2023-02-27T13:13:48.787Z,44.50
2023-02-27T13:16:22.177Z,44.26
2023-02-27T13:18:56.340Z,44.53
2023-02-27T13:21:32.763Z,45.40
2023-02-27T13:24:15.310Z,45.59
2023-02-27T13:26:47.821Z,45.77
2023-02-27T13:29:18.339Z,44.99
2023-02-27T13:31:54.104Z,45.07
2023-02-27T13:34:28.171Z,45.40
2023-02-27T13:37:02.372Z,45.36
2023-02-27T13:39:59.540Z,45.67
2023-02-27T13:43:06.423Z,45.61
2023-02-27T13:45:54.288Z,45.14
2023-02-27T13:48:46.285Z,44.84
2023-02-27T13:51:54.254Z,45.16
2023-02-27T13:54:34.637Z,45.56
2023-02-27T13:57:21.478Z,44.85
2023-02-27T13:59:59.062Z,45.13
2023-02-27T14:02:46.576Z,44.79
2023-02-27T14:05:30.239Z,45.17
2023-02-27T14:08:04.737Z,45.33
2023-02-27T14:10:33.699Z,44.86
2023-02-27T14:13:03.853Z,44.49
2023-02-27T14:15:57.383Z,44.38
2023-02-27T14:18:59.536Z,44.23
2023-02-27T14:22:00.412Z,44.39
2023-02-27T14:24:38.239Z,43.77
2023-02-27T14:27:16.638Z,43.54
2023-02-27T14:29:48.393Z,43.69
2023-02-27T14:32:21.754Z,43.44
2023-02-27T14:34:50.334Z,43.48
2023-02-27T14:37:23.468Z,43.95
2023-02-27T14:39:52.813Z,43.90
2023-02-27T14:42:41.113Z,44.03
2023-02-27T14:45:19.923Z,43.92
2023-02-27T14:47:48.655Z,43.72
2023-02-27T14:50:34.339Z,43.57
2023-02-27T14:53:02.762Z,43.82
2023-02-27T14:55:32.436Z,44.02
2023-02-27T14:58:09.746Z,43.96
2023-02-27T15:00:41.893Z,44.20
2023-02-27T15:03:18.228Z,44.27
2023-02-27T15:05:50.490Z,44.79
2023-02-27T15:08:21.658Z,45.16
2023-02-27T15:10:50.168Z,45.96
2023-02-27T15:13:26.071Z,46.07
2023-02-27T15:16:21.713Z,46.18
2023-02-27T15:18:51.028Z,46.52
2023-02-27T15:21:21.485Z,46.66
2023-02-27T15:23:55.983Z,46.97
2023-02-27T15:26:24.256Z,47.28
2023-02-27T15:28:52.782Z,47.71
2023-02-27T15:31:27.095Z,47.69
2023-02-27T15:33:56.875Z,48.16
2023-02-27T15:36:28.958Z,48.14
2023-02-27T15:39:17.184Z,48.53
2023-02-27T15:41:48.748Z,48.41
2023-02-27T15:44:17.630Z,48.66
2023-02-27T15:46:48.567Z,48.48
2023-02-27T15:49:18.960Z,48.85
2023-02-27T15:51:56.063Z,48.64
2023-02-27T15:54:24.436Z,48.63
2023-02-27T15:56:53.410Z,48.96
2023-02-27T15:59:21.831Z,48.69
2023-02-27T16:01:51.335Z,49.24
2023-02-27T16:04:25.482Z,48.97
2023-02-27T16:07:02.680Z,49.05
2023-02-27T16:09:33.787Z,49.08
2023-02-27T16:12:33.677Z,49.26
2023-02-27T16:15:32.152Z,49.25
2023-02-27T16:18:04.441Z,49.51
2023-02-27T16:20:43.798Z,49.47
2023-02-27T16:23:21.525Z,49.64
2023-02-27T16:26:05.491Z,50.20
2023-02-27T16:28:35.199Z,50.20
2023-02-27T16:31:03.659Z,50.11
2023-02-27T16:33:36.737Z,50.41
2023-02-27T16:36:17.823Z,51.09
2023-02-27T16:38:46.711Z,50.90
2023-02-27T16:41:17.256Z,51.03
2023-02-27T16:43:47.109Z,51.92
2023-02-27T16:46:20.252Z,51.94
2023-02-27T16:48:53.402Z,52.61
2023-02-27T16:51:24.264Z,52.92
2023-02-27T16:53:53.026Z,52.54
2023-02-27T16:56:35.758Z,53.05
2023-02-27T16:59:05.503Z,53.42
2023-02-27T17:01:34.373Z,53.04
2023-02-27T17:04:10.759Z,52.76
2023-02-27T17:06:44.508Z,52.76
2023-02-27T17:09:13.243Z,51.46
2023-02-27T17:11:41.228Z,49.76
2023-02-27T17:14:09.290Z,49.12
2023-02-27T17:16:37.412Z,48.65
2023-02-27T17:19:06.823Z,48.23
2023-02-27T17:21:36.080Z,46.94
2023-02-27T17:24:06.164Z,47.17
2023-02-27T17:26:34.758Z,47.65
2023-02-27T17:29:03.663Z,47.23
2023-02-27T17:31:32.035Z,47.15
2023-02-27T17:34:00.108Z,46.90
2023-02-27T17:36:29.894Z,46.72
2023-02-27T17:39:00.616Z,46.52
2023-02-27T17:41:30.136Z,46.21
2023-02-27T17:44:01.920Z,46.62
2023-02-27T17:46:34.366Z,46.08
2023-02-27T17:49:02.761Z,46.02
2023-02-27T17:51:33.186Z,46.42
2023-02-27T17:54:02.541Z,46.38
2023-02-27T17:56:30.823Z,46.13
2023-02-27T17:58:59.101Z,46.91
2023-02-27T18:01:27.574Z,46.93
2023-02-27T18:03:56.073Z,48.70
2023-02-27T18:06:25.436Z,49.83
2023-02-27T18:08:54.941Z,50.86
2023-02-27T18:11:23.504Z,49.75
2023-02-27T18:13:52.359Z,50.15
2023-02-27T18:16:22.085Z,51.73
2023-02-27T18:18:50.608Z,51.82
2023-02-27T18:21:21.218Z,52.68
2023-02-27T18:23:50.189Z,53.63
2023-02-27T18:26:29.555Z,54.27
2023-02-27T18:29:00.718Z,54.55
2023-02-27T18:31:31.418Z,55.12
2023-02-27T18:33:59.711Z,55.38
2023-02-27T18:36:28.250Z,56.00
2023-02-27T18:38:56.557Z,56.68
2023-02-27T18:41:26.618Z,57.40
2023-02-27T18:43:54.628Z,57.42
2023-02-27T18:46:22.839Z,57.75
2023-02-27T18:48:50.882Z,58.20
2023-02-27T18:51:19.534Z,58.13
2023-02-27T18:53:49.520Z,58.02
2023-02-27T18:56:19.413Z,58.14
2023-02-27T18:58:48.721Z,57.47
2023-02-27T19:01:21.938Z,56.61
2023-02-27T19:03:50.632Z,56.26
2023-02-27T19:06:18.731Z,56.14
2023-02-27T19:08:47.504Z,55.90
2023-02-27T19:11:23.708Z,55.42
2023-02-27T19:13:53.440Z,56.03
2023-02-27T19:16:21.849Z,55.87
2023-02-27T19:18:49.805Z,55.97
2023-02-27T19:21:17.946Z,55.58
2023-02-27T19:23:45.887Z,54.97
2023-02-27T19:26:13.875Z,54.90
2023-02-27T19:28:41.875Z,54.63
2023-02-27T19:31:13.107Z,54.76
2023-02-27T19:33:41.675Z,55.11
2023-02-27T19:36:11.887Z,55.27
2023-02-27T19:38:40.406Z,55.22
2023-02-27T19:41:11.312Z,55.34
2023-02-27T19:43:40.364Z,55.19
2023-02-27T19:46:09.994Z,55.57
2023-02-27T19:48:40.244Z,55.81
2023-02-27T19:51:10.393Z,55.49
2023-02-27T19:53:40.341Z,55.78
2023-02-27T19:56:12.177Z,55.94
2023-02-27T19:58:40.618Z,55.59
2023-02-27T20:01:09.932Z,55.68
2023-02-27T20:03:43.814Z,55.67
2023-02-27T20:06:17.803Z,55.44
2023-02-27T20:08:45.883Z,56.14
2023-02-27T20:11:17.267Z,56.25
2023-02-27T20:13:45.669Z,56.47
2023-02-27T20:16:16.468Z,57.86
2023-02-27T20:18:46.657Z,59.47
2023-02-27T20:21:17.621Z,60.78
2023-02-27T20:23:47.556Z,61.20
2023-02-27T20:26:17.970Z,61.76
2023-02-27T20:28:46.315Z,62.99
2023-02-27T20:31:16.483Z,63.58
2023-02-27T20:33:46.404Z,63.96
2023-02-27T20:36:14.917Z,63.72
2023-02-27T20:38:43.822Z,63.57
2023-02-27T20:41:13.799Z,63.91
2023-02-27T20:43:42.976Z,64.42
2023-02-27T20:46:13.865Z,65.37
2023-02-27T20:48:42.030Z,64.77
2023-02-27T20:51:13.519Z,66.22
2023-02-27T20:53:43.521Z,66.31
2023-02-27T20:56:12.379Z,66.37
2023-02-27T20:58:41.006Z,67.24
2023-02-27T21:01:10.205Z,67.83
2023-02-27T21:03:40.044Z,68.34
2023-02-27T21:06:09.610Z,68.74
2023-02-27T21:08:39.815Z,69.35
2023-02-27T21:11:09.071Z,69.13
2023-02-27T21:13:38.025Z,68.11
2023-02-27T21:16:07.667Z,68.20
2023-02-27T21:18:36.385Z,69.85
2023-02-27T21:21:05.522Z,70.78
2023-02-27T21:23:33.917Z,69.88
2023-02-27T21:26:05.951Z,69.59
2023-02-27T21:28:33.967Z,69.64
2023-02-27T21:31:06.774Z,69.51
2023-02-27T21:33:36.133Z,69.59
2023-02-27T21:36:04.683Z,70.18
2023-02-27T21:38:32.573Z,70.06
2023-02-27T21:41:05.092Z,70.03
2023-02-27T21:43:34.876Z,69.54
2023-02-27T21:46:06.316Z,70.25
2023-02-27T21:48:34.625Z,70.38
2023-02-27T21:51:03.358Z,71.15
2023-02-27T21:53:31.758Z,71.67
2023-02-27T21:56:03.999Z,73.24
2023-02-27T21:58:32.447Z,73.45
2023-02-27T22:01:02.020Z,72.27
2023-02-27T22:03:34.195Z,71.75
2023-02-27T22:06:02.792Z,72.99
2023-02-27T22:08:30.763Z,73.12
2023-02-27T22:10:59.286Z,74.62
2023-02-27T22:13:28.391Z,75.30
2023-02-27T22:15:56.397Z,75.28
2023-02-27T22:18:26.665Z,75.59
2023-02-27T22:20:54.594Z,75.21
2023-02-27T22:23:22.533Z,75.96
2023-02-27T22:26:01.457Z,76.21
2023-02-27T22:28:30.295Z,76.41
2023-02-27T22:31:08.335Z,77.53
2023-02-27T22:33:38.027Z,78.59
2023-02-27T22:36:08.329Z,79.55
2023-02-27T22:38:37.059Z,80.66
2023-02-27T22:41:09.818Z,80.51
2023-02-27T22:43:39.734Z,81.03
2023-02-27T22:46:07.771Z,82.11
2023-02-27T22:48:37.290Z,82.79
2023-02-27T22:51:07.354Z,82.53
2023-02-27T22:53:38.397Z,82.34
2023-02-27T22:56:07.765Z,82.27
2023-02-27T22:58:37.278Z,80.99
2023-02-27T23:01:09.684Z,79.51
2023-02-27T23:03:39.923Z,80.92
2023-02-27T23:06:10.440Z,82.02
2023-02-27T23:08:38.875Z,81.63
2023-02-27T23:11:07.410Z,80.94
2023-02-27T23:13:35.629Z,80.10
2023-02-27T23:16:11.327Z,79.77
2023-02-27T23:18:41.641Z,80.01
2023-02-27T23:21:10.837Z,80.53
2023-02-27T23:23:38.822Z,80.29
2023-02-27T23:26:08.110Z,79.62
2023-02-27T23:28:37.211Z,79.17
2023-02-27T23:31:06.009Z,78.16
2023-02-27T23:33:34.448Z,77.77
2023-02-27T23:36:04.599Z,78.09
2023-02-27T23:38:32.789Z,77.65
2023-02-27T23:41:06.182Z,77.24
2023-02-27T23:43:51.784Z,77.62
2023-02-27T23:46:20.081Z,78.24
2023-02-27T23:48:48.769Z,77.57
2023-02-27T23:51:18.105Z,78.48
2023-02-27T23:53:46.013Z,78.53
2023-02-27T23:56:16.025Z,78.20
2023-02-27T23:58:44.114Z,78.09
